createdAt,value
2018-10-16T00:00:50.016Z,14.07
2018-10-16T00:03:18.854Z,14.40
2018-10-16T00:05:47.707Z,15.17
2018-10-16T00:08:16.836Z,15.50
2018-10-16T00:10:46.668Z,14.20
2018-10-16T00:13:15.502Z,14.27
2018-10-16T00:15:44.333Z,13.57
2018-10-16T00:18:13.311Z,15.50
2018-10-16T00:20:42.186Z,15.30
2018-10-16T00:23:11.723Z,13.63
2018-10-16T00:25:40.554Z,18.20
2018-10-16T00:28:09.435Z,15.43
2018-10-16T00:30:39.417Z,15.20
2018-10-16T00:33:08.236Z,14.60
2018-10-16T00:35:37.095Z,14.73
2018-10-16T00:38:06.031Z,15.00
2018-10-16T00:40:34.900Z,15.07
2018-10-16T00:43:03.749Z,14.90
2018-10-16T00:45:32.602Z,14.20
2018-10-16T00:48:01.453Z,15.27
2018-10-16T00:50:30.330Z,14.07
2018-10-16T00:52:59.654Z,14.53
2018-10-16T00:55:28.490Z,14.53
2018-10-16T00:57:57.323Z,15.50
2018-10-16T01:00:26.165Z,14.10
2018-10-16T01:02:55.017Z,13.50
2018-10-16T01:05:23.887Z,14.73
2018-10-16T01:07:52.739Z,14.47
2018-10-16T01:10:21.618Z,14.45
2018-10-16T01:12:50.501Z,15.07
2018-10-16T01:15:19.454Z,13.87
2018-10-16T01:17:48.286Z,15.40
2018-10-16T01:20:17.122Z,14.23
2018-10-16T01:22:45.969Z,14.73
2018-10-16T01:25:15.139Z,14.93
2018-10-16T01:27:43.978Z,15.30
2018-10-16T01:30:12.844Z,15.97
2018-10-16T01:32:41.699Z,14.67
2018-10-16T01:35:11.823Z,14.23
2018-10-16T01:37:41.319Z,13.43
2018-10-16T01:40:11.037Z,14.13
2018-10-16T01:42:39.863Z,14.70
2018-10-16T01:45:09.968Z,13.43
2018-10-16T01:47:38.829Z,14.53
2018-10-16T01:50:09.061Z,14.73
2018-10-16T01:52:37.954Z,15.03
2018-10-16T01:55:08.858Z,15.45
2018-10-16T01:57:37.723Z,14.70
2018-10-16T02:00:08.402Z,13.77
2018-10-16T02:02:37.330Z,14.60
2018-10-16T02:05:08.360Z,14.35
2018-10-16T02:07:37.475Z,15.23
2018-10-16T02:10:07.958Z,14.10
2018-10-16T02:12:37.163Z,14.53
2018-10-16T02:15:07.798Z,14.80
2018-10-16T02:17:40.473Z,14.13
2018-10-16T02:20:10.287Z,12.73
2018-10-16T02:22:39.808Z,14.83
2018-10-16T02:25:09.805Z,14.43
2018-10-16T02:27:39.726Z,13.40
2018-10-16T02:30:08.652Z,14.90
2018-10-16T02:32:37.493Z,14.50
2018-10-16T02:35:08.760Z,14.17
2018-10-16T02:37:37.580Z,14.83
2018-10-16T02:40:07.145Z,12.37
2018-10-16T02:42:36.276Z,13.40
2018-10-16T02:45:06.138Z,13.40
2018-10-16T02:47:34.995Z,13.43
2018-10-16T02:50:03.858Z,14.20
2018-10-16T02:52:32.728Z,12.33
2018-10-16T02:55:01.607Z,13.40
2018-10-16T02:57:30.458Z,13.80
2018-10-16T02:59:59.289Z,14.23
2018-10-16T03:02:28.150Z,13.03
2018-10-16T03:04:57.603Z,14.20
2018-10-16T03:07:26.433Z,13.70
2018-10-16T03:09:55.265Z,13.50
2018-10-16T03:12:24.102Z,13.93
2018-10-16T03:14:52.925Z,13.93
2018-10-16T03:17:21.786Z,12.73
2018-10-16T03:19:50.631Z,13.90
2018-10-16T03:22:19.477Z,12.90
2018-10-16T03:24:48.319Z,12.77
2018-10-16T03:27:17.524Z,12.40
2018-10-16T03:29:46.608Z,13.53
2018-10-16T03:32:15.443Z,12.57
2018-10-16T03:34:44.294Z,13.20
2018-10-16T03:37:13.126Z,13.57
2018-10-16T03:39:41.966Z,13.30
2018-10-16T03:42:10.810Z,13.23
2018-10-16T03:44:39.643Z,13.77
2018-10-16T03:47:08.470Z,12.13
2018-10-16T03:49:37.526Z,13.93
2018-10-16T03:52:06.421Z,13.43
2018-10-16T03:54:35.254Z,12.80
2018-10-16T03:57:04.147Z,13.53
2018-10-16T03:59:32.986Z,14.13
2018-10-16T04:02:01.811Z,13.10
2018-10-16T04:04:30.660Z,14.20
2018-10-16T04:06:59.491Z,14.13
2018-10-16T04:09:28.339Z,13.33
2018-10-16T04:11:57.579Z,13.60
2018-10-16T04:14:27.157Z,14.20
2018-10-16T04:16:55.985Z,13.70
2018-10-16T04:19:24.838Z,14.83
2018-10-16T04:21:53.675Z,14.13
2018-10-16T04:24:22.505Z,12.43
2018-10-16T04:26:51.365Z,12.77
2018-10-16T04:29:20.220Z,12.83
2018-10-16T04:31:49.418Z,12.90
2018-10-16T04:34:18.770Z,12.33
2018-10-16T04:36:47.587Z,12.30
2018-10-16T04:39:16.424Z,13.47
2018-10-16T04:41:45.259Z,13.07
2018-10-16T04:44:14.090Z,12.73
2018-10-16T04:46:42.921Z,13.90
2018-10-16T04:49:11.738Z,13.23
2018-10-16T04:51:40.611Z,12.53
2018-10-16T04:54:09.618Z,14.93
2018-10-16T04:56:38.738Z,14.83
2018-10-16T04:59:07.565Z,13.70
2018-10-16T05:01:36.390Z,14.43
2018-10-16T05:04:05.689Z,13.27
2018-10-16T05:06:34.567Z,12.90
2018-10-16T05:09:04.534Z,11.77
2018-10-16T05:11:34.042Z,12.90
2018-10-16T05:14:02.830Z,13.03
2018-10-16T05:16:31.775Z,13.70
2018-10-16T05:19:01.325Z,13.37
2018-10-16T05:21:30.074Z,13.13
2018-10-16T05:23:58.873Z,13.43
2018-10-16T05:26:27.714Z,13.57
2018-10-16T05:28:56.523Z,14.47
2018-10-16T05:31:25.510Z,14.77
2018-10-16T05:33:55.174Z,14.83
2018-10-16T05:36:24.014Z,15.27
2018-10-16T05:38:52.829Z,15.00
2018-10-16T05:41:22.210Z,17.13
2018-10-16T05:43:51.014Z,16.97
2018-10-16T05:46:19.841Z,16.40
2018-10-16T05:48:48.695Z,16.30
2018-10-16T05:51:17.508Z,15.13
2018-10-16T05:53:46.313Z,15.23
2018-10-16T05:56:15.129Z,14.87
2018-10-16T05:58:43.950Z,14.13
2018-10-16T06:01:12.780Z,15.67
2018-10-16T06:03:42.129Z,16.00
2018-10-16T06:06:10.928Z,14.40
2018-10-16T06:08:39.753Z,16.27
2018-10-16T06:11:08.596Z,17.63
2018-10-16T06:13:37.399Z,17.43
2018-10-16T06:16:06.378Z,20.60
2018-10-16T06:18:35.134Z,18.67
2018-10-16T06:21:04.272Z,17.50
2018-10-16T06:23:33.111Z,17.83
2018-10-16T06:26:02.904Z,18.43
2018-10-16T06:28:31.751Z,16.63
2018-10-16T06:31:00.557Z,18.33
2018-10-16T06:33:30.786Z,16.50
2018-10-16T06:36:00.149Z,15.70
2018-10-16T06:38:28.982Z,17.23
2018-10-16T06:40:57.970Z,18.17
2018-10-16T06:43:26.714Z,16.90
2018-10-16T06:45:55.532Z,16.23
2018-10-16T06:48:25.067Z,16.93
2018-10-16T06:50:53.681Z,17.17
2018-10-16T06:53:22.531Z,16.63
2018-10-16T06:55:51.352Z,15.70
2018-10-16T06:58:20.145Z,18.40
2018-10-16T07:00:48.943Z,16.57
2018-10-16T07:03:17.782Z,17.87
2018-10-16T07:05:46.578Z,17.57
2018-10-16T07:08:15.363Z,16.00
2018-10-16T07:10:44.542Z,16.00
2018-10-16T07:13:13.394Z,15.47
2018-10-16T07:15:42.222Z,17.20
2018-10-16T07:18:11.040Z,17.40
2018-10-16T07:20:39.877Z,16.90
2018-10-16T07:23:08.703Z,16.20
2018-10-16T07:25:37.548Z,16.53
2018-10-16T07:28:06.372Z,16.27
2018-10-16T07:30:35.167Z,15.83
2018-10-16T07:33:04.427Z,17.27
2018-10-16T07:35:33.274Z,18.50
2018-10-16T07:38:02.682Z,18.00
2018-10-16T07:40:31.376Z,16.20
2018-10-16T07:43:00.188Z,16.27
2018-10-16T07:45:29.552Z,16.83
2018-10-16T07:47:58.369Z,16.83
2018-10-16T07:50:27.265Z,16.30
2018-10-16T07:52:56.091Z,16.03
2018-10-16T07:55:25.502Z,15.60
2018-10-16T07:57:54.299Z,16.60
2018-10-16T08:00:23.107Z,17.03
2018-10-16T08:02:51.942Z,15.37
2018-10-16T08:05:20.818Z,17.23
2018-10-16T08:07:49.631Z,18.83
2018-10-16T08:10:18.486Z,16.03
2018-10-16T08:12:47.276Z,15.37
2018-10-16T08:15:16.111Z,16.07
2018-10-16T08:17:45.332Z,15.63
2018-10-16T08:20:14.127Z,16.03
2018-10-16T08:22:42.977Z,15.13
2018-10-16T08:25:11.803Z,18.20
2018-10-16T08:27:40.621Z,16.20
2018-10-16T08:30:10.345Z,14.43
2018-10-16T08:32:39.143Z,16.83
2018-10-16T08:35:08.675Z,16.17
2018-10-16T08:39:53.221Z,16.67
2018-10-16T08:43:42.342Z,15.03
2018-10-16T08:47:28.038Z,15.17
2018-10-16T08:51:15.727Z,14.37
2018-10-16T08:53:44.525Z,15.03
2018-10-16T08:56:13.363Z,12.90
2018-10-16T08:58:42.184Z,14.53
2018-10-16T09:01:11.310Z,15.83
2018-10-16T09:03:40.134Z,14.07
2018-10-16T09:06:08.975Z,14.87
2018-10-16T09:08:37.799Z,15.27
2018-10-16T09:11:06.599Z,14.77
2018-10-16T09:13:35.393Z,15.27
2018-10-16T09:16:04.497Z,15.47
2018-10-16T09:18:33.295Z,15.10
2018-10-16T09:21:02.112Z,14.20
2018-10-16T09:23:31.326Z,14.13
2018-10-16T09:26:00.198Z,14.93
2018-10-16T09:28:29.264Z,15.10
2018-10-16T09:30:58.221Z,13.93
2018-10-16T09:33:27.041Z,14.80
2018-10-16T09:35:55.820Z,15.00
2018-10-16T09:38:24.635Z,14.07
2018-10-16T09:40:54.091Z,15.00
2018-10-16T09:43:23.058Z,13.33
2018-10-16T09:45:52.406Z,16.13
2018-10-16T09:48:21.321Z,14.07
2018-10-16T09:50:50.115Z,14.80
2018-10-16T09:53:18.968Z,13.70
2018-10-16T09:55:47.822Z,15.37
2018-10-16T09:58:16.653Z,15.70
2018-10-16T10:00:50.783Z,13.67
2018-10-16T10:03:19.554Z,13.07
2018-10-16T10:05:48.347Z,14.30
2018-10-16T10:08:17.495Z,14.80
2018-10-16T10:10:46.315Z,14.40
2018-10-16T10:13:15.154Z,14.10
2018-10-16T10:15:43.965Z,13.47
2018-10-16T10:18:12.798Z,13.07
2018-10-16T10:20:41.598Z,13.87
2018-10-16T10:23:11.642Z,12.67
2018-10-16T10:25:40.483Z,14.03
2018-10-16T10:28:09.292Z,13.37
2018-10-16T10:30:38.534Z,13.97
2018-10-16T10:33:07.346Z,12.80
2018-10-16T10:35:36.269Z,12.97
2018-10-16T10:38:05.036Z,13.57
2018-10-16T10:40:33.850Z,13.93
2018-10-16T10:43:03.111Z,13.53
2018-10-16T10:45:31.944Z,13.53
2018-10-16T10:48:00.751Z,13.47
2018-10-16T10:50:29.775Z,13.73
2018-10-16T10:52:59.034Z,12.73
2018-10-16T10:55:27.844Z,13.10
2018-10-16T10:57:56.668Z,12.30
2018-10-16T11:00:25.455Z,12.17
2018-10-16T11:02:54.301Z,12.77
2018-10-16T11:05:23.109Z,12.07
2018-10-16T11:07:51.953Z,12.57
2018-10-16T11:10:20.757Z,13.73
2018-10-16T11:12:49.551Z,12.37
2018-10-16T11:15:18.800Z,14.03
2018-10-16T11:17:47.604Z,11.83
2018-10-16T11:20:16.393Z,11.90
2018-10-16T11:22:45.248Z,13.90
2018-10-16T11:25:14.031Z,13.20
2018-10-16T11:27:42.847Z,11.73
2018-10-16T11:30:14.401Z,11.90
2018-10-16T11:32:43.409Z,12.97
2018-10-16T11:35:13.595Z,12.60
2018-10-16T11:37:43.006Z,11.10
2018-10-16T11:40:12.216Z,11.57
2018-10-16T11:42:41.719Z,11.30
2018-10-16T11:45:11.168Z,14.93
2018-10-16T11:47:39.938Z,11.67
2018-10-16T11:50:10.639Z,12.33
2018-10-16T11:52:39.675Z,11.70
2018-10-16T11:55:09.342Z,11.10
2018-10-16T11:57:38.251Z,12.07
2018-10-16T12:00:14.753Z,12.88
2018-10-16T12:02:43.904Z,12.40
2018-10-16T12:05:12.776Z,13.17
2018-10-16T12:07:41.624Z,12.20
2018-10-16T12:10:10.464Z,12.33
2018-10-16T12:12:39.274Z,11.47
2018-10-16T12:15:08.681Z,11.78
2018-10-16T12:17:42.889Z,11.67
2018-10-16T12:20:17.076Z,11.40
2018-10-16T12:22:45.889Z,11.17
2018-10-16T12:25:14.746Z,10.37
2018-10-16T12:27:43.528Z,14.47
2018-10-16T12:30:12.357Z,11.47
2018-10-16T12:32:41.184Z,10.73
2018-10-16T12:35:09.995Z,10.73
2018-10-16T12:37:38.809Z,11.17
2018-10-16T12:40:08.977Z,12.20
2018-10-16T12:42:38.282Z,11.27
2018-10-16T12:45:08.660Z,12.40
2018-10-16T12:47:37.921Z,11.47
2018-10-16T12:50:08.277Z,10.45
2018-10-16T12:52:37.018Z,10.73
2018-10-16T12:55:06.939Z,11.37
2018-10-16T12:57:35.767Z,9.70
2018-10-16T13:00:05.631Z,10.53
2018-10-16T13:02:34.392Z,10.83
2018-10-16T13:05:03.753Z,11.17
2018-10-16T13:07:35.650Z,11.00
2018-10-16T13:10:11.401Z,9.13
2018-10-16T13:12:40.499Z,10.63
2018-10-16T13:15:11.146Z,10.87
2018-10-16T13:17:40.223Z,10.33
2018-10-16T13:20:12.253Z,9.53
2018-10-16T13:22:41.881Z,10.87
2018-10-16T13:25:12.126Z,11.03
2018-10-16T13:27:41.173Z,9.97
2018-10-16T13:30:12.192Z,10.17
2018-10-16T13:32:41.041Z,10.73
2018-10-16T13:35:12.530Z,11.10
2018-10-16T13:37:42.413Z,9.77
2018-10-16T13:40:11.733Z,10.10
2018-10-16T13:42:40.600Z,10.80
2018-10-16T13:45:10.958Z,9.43
2018-10-16T13:47:40.255Z,9.83
2018-10-16T13:50:11.317Z,9.53
2018-10-16T13:52:40.165Z,10.30
2018-10-16T13:55:09.866Z,10.70
2018-10-16T13:57:38.687Z,10.17
2018-10-16T14:00:13.269Z,9.97
2018-10-16T14:02:43.303Z,9.83
2018-10-16T14:05:12.126Z,10.10
2018-10-16T14:07:40.991Z,8.90
2018-10-16T14:10:11.274Z,10.33
2018-10-16T14:12:41.622Z,10.80
2018-10-16T14:15:11.256Z,10.67
2018-10-16T14:17:40.235Z,11.40
2018-10-16T14:20:10.044Z,11.17
2018-10-16T14:22:40.171Z,11.27
2018-10-16T14:25:10.849Z,11.17
2018-10-16T14:27:40.320Z,10.50
2018-10-16T14:30:11.294Z,13.13
2018-10-16T14:32:40.547Z,11.27
2018-10-16T14:35:10.366Z,10.23
2018-10-16T14:37:39.557Z,9.90
2018-10-16T14:40:11.917Z,10.78
2018-10-16T14:42:41.327Z,9.87
2018-10-16T14:45:11.162Z,10.83
2018-10-16T14:47:40.355Z,10.77
2018-10-16T14:50:11.226Z,9.57
2018-10-16T14:52:39.994Z,10.30
2018-10-16T14:55:09.919Z,10.73
2018-10-16T14:57:38.754Z,10.63
2018-10-16T15:00:10.249Z,9.83
2018-10-16T15:02:39.644Z,10.17
2018-10-16T15:05:09.559Z,10.47
2018-10-16T15:07:38.391Z,11.30
2018-10-16T15:10:09.346Z,11.97
2018-10-16T15:12:38.114Z,11.40
2018-10-16T15:15:08.949Z,11.15
2018-10-16T15:17:40.598Z,14.07
2018-10-16T15:20:10.746Z,12.57
2018-10-16T15:22:39.888Z,11.10
2018-10-16T15:25:09.992Z,11.65
2018-10-16T15:27:38.811Z,10.97
2018-10-16T15:30:09.933Z,15.93
2018-10-16T15:32:39.018Z,14.03
2018-10-16T15:35:09.573Z,12.35
2018-10-16T15:37:38.698Z,11.67
2018-10-16T15:40:10.267Z,11.90
2018-10-16T15:42:39.512Z,11.80
2018-10-16T15:45:10.587Z,12.63
2018-10-16T15:47:39.844Z,13.33
2018-10-16T15:50:10.033Z,12.77
2018-10-16T15:52:39.177Z,12.00
2018-10-16T15:55:10.102Z,13.62
2018-10-16T15:57:39.069Z,14.13
2018-10-16T16:00:12.438Z,12.70
2018-10-16T16:02:41.591Z,13.23
2018-10-16T16:05:10.407Z,12.73
2018-10-16T16:07:39.238Z,15.83
2018-10-16T16:10:12.037Z,14.58
2018-10-16T16:12:40.846Z,14.80
2018-10-16T16:15:10.670Z,14.83
2018-10-16T16:17:39.498Z,14.33
2018-10-16T16:20:10.570Z,14.18
2018-10-16T16:22:39.359Z,13.60
2018-10-16T16:25:10.927Z,14.33
2018-10-16T16:27:39.791Z,13.23
2018-10-16T16:30:12.600Z,15.58
2018-10-16T16:32:41.353Z,16.33
2018-10-16T16:35:10.265Z,15.83
2018-10-16T16:37:38.991Z,16.80
2018-10-16T16:40:10.984Z,15.77
2018-10-16T16:42:39.767Z,15.83
2018-10-16T16:45:09.730Z,15.77
2018-10-16T16:47:38.736Z,15.63
2018-10-16T16:50:11.108Z,17.20
2018-10-16T16:52:40.339Z,15.80
2018-10-16T16:55:11.294Z,17.70
2018-10-16T16:57:40.157Z,16.90
2018-10-16T17:00:11.574Z,16.73
2018-10-16T17:02:41.491Z,17.73
2018-10-16T17:05:11.021Z,19.27
2018-10-16T17:07:40.184Z,17.13
2018-10-16T17:10:09.632Z,16.43
2018-10-16T17:12:39.100Z,16.50
2018-10-16T17:15:11.820Z,17.80
2018-10-16T17:17:40.699Z,18.27
2018-10-16T17:20:10.446Z,17.27
2018-10-16T17:22:39.703Z,17.63
2018-10-16T17:25:11.719Z,17.82
2018-10-16T17:27:40.358Z,16.07
2018-10-16T17:30:13.209Z,16.57
2018-10-16T17:32:42.453Z,18.47
2018-10-16T17:35:11.923Z,18.03
2018-10-16T17:37:41.847Z,20.80
2018-10-16T17:40:15.376Z,18.53
2018-10-16T17:42:51.014Z,18.30
2018-10-16T17:45:19.840Z,19.80
2018-10-16T17:47:48.728Z,18.93
2018-10-16T17:50:18.853Z,20.70
2018-10-16T17:52:47.676Z,20.33
2018-10-16T17:55:16.906Z,19.67
2018-10-16T17:57:45.776Z,19.63
2018-10-16T18:00:16.506Z,20.57
2018-10-16T18:02:45.591Z,20.90
2018-10-16T18:05:14.882Z,35.10
2018-10-16T18:07:44.304Z,21.60
2018-10-16T18:10:13.103Z,22.47
2018-10-16T18:12:41.906Z,21.90
2018-10-16T18:15:12.584Z,20.77
2018-10-16T18:17:42.006Z,20.87
2018-10-16T18:20:13.569Z,21.00
2018-10-16T18:22:42.749Z,21.37
2018-10-16T18:25:11.989Z,20.90
2018-10-16T18:27:41.371Z,21.13
2018-10-16T18:30:11.382Z,19.23
2018-10-16T18:32:40.515Z,20.77
2018-10-16T18:35:09.584Z,21.97
2018-10-16T18:37:38.773Z,20.80
2018-10-16T18:40:09.437Z,21.25
2018-10-16T18:42:38.907Z,21.67
2018-10-16T18:45:10.401Z,22.30
2018-10-16T18:47:39.290Z,22.47
2018-10-16T18:50:10.708Z,22.60
2018-10-16T18:52:39.979Z,24.60
2018-10-16T18:55:11.175Z,22.13
2018-10-16T18:57:40.087Z,23.47
2018-10-16T19:00:13.343Z,22.23
2018-10-16T19:02:42.625Z,21.00
2018-10-16T19:05:12.019Z,20.35
2018-10-16T19:07:41.196Z,20.23
2018-10-16T19:10:10.046Z,20.20
2018-10-16T19:12:40.649Z,21.40
2018-10-16T19:15:11.366Z,20.57
2018-10-16T19:17:40.193Z,21.33
2018-10-16T19:20:10.901Z,22.47
2018-10-16T19:22:40.216Z,22.63
2018-10-16T19:25:09.825Z,20.40
2018-10-16T19:27:38.799Z,20.33
2018-10-16T19:30:09.358Z,20.70
2018-10-16T19:32:38.463Z,21.07
2018-10-16T19:35:09.613Z,20.52
2018-10-16T19:37:38.577Z,19.93
2018-10-16T19:40:08.402Z,19.77
2018-10-16T19:42:37.211Z,19.43
2018-10-16T19:45:07.764Z,21.07
2018-10-16T19:47:36.578Z,22.47
2018-10-16T19:50:05.951Z,24.13
2018-10-16T19:52:34.779Z,23.17
2018-10-16T19:55:04.423Z,23.27
2018-10-16T19:57:33.214Z,23.33
2018-10-16T20:00:02.737Z,21.73
2018-10-16T20:02:31.546Z,22.23
2018-10-16T20:05:00.406Z,23.43
2018-10-16T20:07:29.915Z,22.33
2018-10-16T20:09:58.793Z,22.70
2018-10-16T20:12:27.574Z,22.83
2018-10-16T20:14:56.423Z,22.07
2018-10-16T20:17:25.240Z,23.67
2018-10-16T20:19:54.054Z,22.53
2018-10-16T20:22:22.879Z,24.43
2018-10-16T20:24:51.929Z,23.50
2018-10-16T20:27:20.675Z,25.10
2018-10-16T20:29:50.098Z,23.50
2018-10-16T20:32:18.911Z,25.25
2018-10-16T20:34:47.727Z,26.03
2018-10-16T20:37:16.549Z,27.73
2018-10-16T20:39:45.362Z,24.93
2018-10-16T20:42:14.189Z,23.73
2018-10-16T20:44:43.017Z,24.67
2018-10-16T20:47:11.817Z,23.27
2018-10-16T20:49:40.657Z,24.37
2018-10-16T20:52:09.806Z,40.87
2018-10-16T20:54:38.607Z,24.93
2018-10-16T20:57:07.845Z,25.40
2018-10-16T20:59:36.696Z,25.57
2018-10-16T21:02:06.185Z,26.30
2018-10-16T21:04:35.072Z,26.17
2018-10-16T21:07:04.130Z,26.40
2018-10-16T21:09:32.734Z,26.87
2018-10-16T21:12:01.596Z,27.70
2018-10-16T21:14:30.942Z,27.13
2018-10-16T21:16:59.793Z,27.20
2018-10-16T21:19:28.756Z,25.93
2018-10-16T21:21:57.585Z,26.97
2018-10-16T21:24:26.673Z,26.83
2018-10-16T21:29:50.169Z,26.73
2018-10-16T21:32:20.743Z,25.53
2018-10-16T21:34:49.533Z,27.23
2018-10-16T21:37:18.360Z,24.83
2018-10-16T21:39:47.186Z,23.63
2018-10-16T21:42:15.990Z,25.40
2018-10-16T21:44:44.835Z,24.13
2018-10-16T21:47:13.844Z,22.47
2018-10-16T21:49:42.586Z,23.90
2018-10-16T21:52:11.429Z,24.70
2018-10-16T21:54:40.704Z,24.40
2018-10-16T21:57:10.001Z,25.70
2018-10-16T21:59:38.870Z,22.60
2018-10-16T22:02:13.099Z,23.20
2018-10-16T22:04:41.929Z,24.10
2018-10-16T22:07:10.905Z,22.70
2018-10-16T22:09:39.644Z,23.83
2018-10-16T22:12:08.506Z,22.30
2018-10-16T22:14:37.323Z,22.67
2018-10-16T22:17:07.025Z,21.60
2018-10-16T22:19:35.814Z,21.83
2018-10-16T22:22:04.697Z,22.63
2018-10-16T22:24:33.539Z,22.23
2018-10-16T22:27:02.391Z,22.27
2018-10-16T22:29:31.234Z,23.50
2018-10-16T22:32:00.030Z,22.77
2018-10-16T22:34:28.831Z,21.53
2018-10-16T22:36:57.645Z,21.57
2018-10-16T22:39:26.817Z,21.90
2018-10-16T22:41:55.635Z,21.87
2018-10-16T22:44:24.433Z,23.23
2018-10-16T22:46:53.344Z,21.37
2018-10-16T22:49:22.098Z,22.17
2018-10-16T22:51:50.902Z,22.57
2018-10-16T22:54:19.733Z,22.37
2018-10-16T22:56:48.580Z,23.12
2018-10-16T22:59:17.899Z,21.90
2018-10-16T23:01:47.161Z,21.00
2018-10-16T23:04:15.962Z,22.00
2018-10-16T23:06:44.897Z,23.73
2018-10-16T23:09:13.721Z,22.23
2018-10-16T23:11:42.549Z,22.17
2018-10-16T23:14:11.367Z,22.87
2018-10-16T23:16:40.194Z,23.23
2018-10-16T23:19:09.046Z,22.93
2018-10-16T23:21:37.815Z,22.87
2018-10-16T23:24:07.075Z,22.53
2018-10-16T23:26:35.892Z,21.40
2018-10-16T23:29:04.771Z,22.37
2018-10-16T23:31:33.549Z,22.10
2018-10-16T23:34:02.358Z,24.07
2018-10-16T23:36:31.174Z,24.43
2018-10-16T23:39:00.001Z,24.23
2018-10-16T23:41:28.855Z,25.33
2018-10-16T23:46:19.301Z,23.37
2018-10-16T23:48:48.158Z,23.90
2018-10-16T23:51:16.985Z,23.53
2018-10-16T23:53:45.833Z,24.13
2018-10-16T23:56:14.641Z,24.03
2018-10-16T23:58:43.515Z,22.90
